sensor_id;sensor_type;location;lat;lon;timestamp;pressure;altitude;pressure_sealevel;temperature;humidity
64095;BME280;50353;51.420;5.682;2022-07-29T00:00:00;101408.69;;;19.81;70.36
64095;BME280;50353;51.420;5.682;2022-07-29T00:02:27;101400.38;;;20.03;66.83
64095;BME280;50353;51.420;5.682;2022-07-29T00:04:52;101402.69;;;19.67;69.09
64095;BME280;50353;51.420;5.682;2022-07-29T00:07:18;101394.94;;;19.74;69.32
64095;BME280;50353;51.420;5.682;2022-07-29T00:09:43;101377.84;;;19.65;69.46
64095;BME280;50353;51.420;5.682;2022-07-29T00:12:08;101372.16;;;19.39;70.44
64095;BME280;50353;51.420;5.682;2022-07-29T00:14:34;101365.78;;;19.40;70.25
64095;BME280;50353;51.420;5.682;2022-07-29T00:16:59;101368.25;;;19.53;71.82
64095;BME280;50353;51.420;5.682;2022-07-29T00:19:24;101370.84;;;19.23;73.85
64095;BME280;50353;51.420;5.682;2022-07-29T00:21:50;101369.81;;;19.15;74.93
64095;BME280;50353;51.420;5.682;2022-07-29T00:24:15;101373.72;;;19.01;75.47
64095;BME280;50353;51.420;5.682;2022-07-29T00:26:40;101374.06;;;19.17;74.05
64095;BME280;50353;51.420;5.682;2022-07-29T00:29:05;101380.25;;;19.08;74.37
64095;BME280;50353;51.420;5.682;2022-07-29T00:31:31;101375.84;;;19.07;75.50
64095;BME280;50353;51.420;5.682;2022-07-29T00:33:56;101386.53;;;19.38;71.90
64095;BME280;50353;51.420;5.682;2022-07-29T00:36:22;101406.72;;;19.01;74.78
64095;BME280;50353;51.420;5.682;2022-07-29T00:38:49;101406.78;;;19.21;71.92
64095;BME280;50353;51.420;5.682;2022-07-29T00:41:14;101430.31;;;19.48;70.79
64095;BME280;50353;51.420;5.682;2022-07-29T00:43:40;101433.38;;;19.34;71.96
64095;BME280;50353;51.420;5.682;2022-07-29T00:46:06;101465.13;;;19.79;66.95
64095;BME280;50353;51.420;5.682;2022-07-29T00:48:31;101478.22;;;20.33;61.14
64095;BME280;50353;51.420;5.682;2022-07-29T00:50:57;101483.88;;;20.30;64.48
64095;BME280;50353;51.420;5.682;2022-07-29T00:53:23;101477.25;;;19.33;67.34
64095;BME280;50353;51.420;5.682;2022-07-29T00:55:49;101487.31;;;18.77;71.57
64095;BME280;50353;51.420;5.682;2022-07-29T00:58:15;101500.72;;;18.77;71.02
64095;BME280;50353;51.420;5.682;2022-07-29T01:00:40;101496.72;;;18.50;74.45
64095;BME280;50353;51.420;5.682;2022-07-29T01:03:06;101491.81;;;18.55;73.85
64095;BME280;50353;51.420;5.682;2022-07-29T01:05:33;101490.34;;;18.30;75.04
64095;BME280;50353;51.420;5.682;2022-07-29T01:08:00;101485.69;;;18.32;75.39
64095;BME280;50353;51.420;5.682;2022-07-29T01:10:26;101462.81;;;18.07;76.18
64095;BME280;50353;51.420;5.682;2022-07-29T01:12:53;101455.78;;;17.95;78.39
64095;BME280;50353;51.420;5.682;2022-07-29T01:15:19;101454.84;;;17.16;81.67
64095;BME280;50353;51.420;5.682;2022-07-29T01:18:02;101422.06;;;17.26;79.77
64095;BME280;50353;51.420;5.682;2022-07-29T01:26:46;101348.00;;;16.94;81.30
64095;BME280;50353;51.420;5.682;2022-07-29T01:31:51;101326.22;;;16.64;80.41
64095;BME280;50353;51.420;5.682;2022-07-29T01:34:23;101322.75;;;17.09;78.77
64095;BME280;50353;51.420;5.682;2022-07-29T01:37:15;101324.72;;;17.51;76.83
64095;BME280;50353;51.420;5.682;2022-07-29T01:39:46;101342.63;;;17.39;76.25
64095;BME280;50353;51.420;5.682;2022-07-29T01:42:20;101365.41;;;17.54;78.45
64095;BME280;50353;51.420;5.682;2022-07-29T01:44:55;101362.69;;;17.77;77.25
64095;BME280;50353;51.420;5.682;2022-07-29T01:47:26;101363.47;;;18.00;75.83
64095;BME280;50353;51.420;5.682;2022-07-29T01:49:58;101350.00;;;17.47;79.73
64095;BME280;50353;51.420;5.682;2022-07-29T01:52:33;101341.69;;;17.61;78.44
64095;BME280;50353;51.420;5.682;2022-07-29T01:55:06;101338.66;;;17.66;77.72
64095;BME280;50353;51.420;5.682;2022-07-29T01:57:33;101321.22;;;17.39;77.90
64095;BME280;50353;51.420;5.682;2022-07-29T02:00:03;101335.00;;;17.12;78.23
64095;BME280;50353;51.420;5.682;2022-07-29T02:02:30;101320.97;;;17.42;77.47
64095;BME280;50353;51.420;5.682;2022-07-29T02:04:58;101306.38;;;16.91;79.91
64095;BME280;50353;51.420;5.682;2022-07-29T02:07:28;101309.84;;;17.26;78.57
64095;BME280;50353;51.420;5.682;2022-07-29T02:09:56;101298.19;;;16.59;82.68
64095;BME280;50353;51.420;5.682;2022-07-29T02:12:23;101283.03;;;17.16;79.19
64095;BME280;50353;51.420;5.682;2022-07-29T02:14:52;101273.22;;;17.05;77.96
64095;BME280;50353;51.420;5.682;2022-07-29T02:17:28;101275.25;;;17.01;78.21
64095;BME280;50353;51.420;5.682;2022-07-29T02:19:59;101273.22;;;17.05;77.50
64095;BME280;50353;51.420;5.682;2022-07-29T02:22:26;101256.72;;;16.77;78.55
64095;BME280;50353;51.420;5.682;2022-07-29T02:24:55;101264.25;;;16.95;77.52
64095;BME280;50353;51.420;5.682;2022-07-29T02:27:22;101261.81;;;17.03;78.68
64095;BME280;50353;51.420;5.682;2022-07-29T02:29:49;101264.94;;;17.19;78.10
64095;BME280;50353;51.420;5.682;2022-07-29T02:32:17;101266.16;;;17.04;77.17
64095;BME280;50353;51.420;5.682;2022-07-29T02:34:43;101262.03;;;16.88;77.58
64095;BME280;50353;51.420;5.682;2022-07-29T02:37:10;101267.03;;;16.93;78.38
64095;BME280;50353;51.420;5.682;2022-07-29T02:39:37;101260.25;;;17.33;77.36
64095;BME280;50353;51.420;5.682;2022-07-29T02:42:05;101273.78;;;17.20;77.64
64095;BME280;50353;51.420;5.682;2022-07-29T02:44:32;101289.38;;;17.47;77.31
64095;BME280;50353;51.420;5.682;2022-07-29T02:47:09;101287.75;;;17.23;77.88
64095;BME280;50353;51.420;5.682;2022-07-29T02:49:43;101281.56;;;17.12;79.05
64095;BME280;50353;51.420;5.682;2022-07-29T02:52:19;101278.81;;;17.46;78.23
64095;BME280;50353;51.420;5.682;2022-07-29T02:57:33;101279.91;;;17.76;76.81
64095;BME280;50353;51.420;5.682;2022-07-29T03:00:06;101275.25;;;17.56;77.24
64095;BME280;50353;51.420;5.682;2022-07-29T03:02:40;101309.78;;;17.48;78.48
64095;BME280;50353;51.420;5.682;2022-07-29T03:05:09;101304.66;;;17.56;77.36
64095;BME280;50353;51.420;5.682;2022-07-29T03:07:36;101310.03;;;17.78;78.46
64095;BME280;50353;51.420;5.682;2022-07-29T03:10:03;101310.16;;;17.87;75.88
64095;BME280;50353;51.420;5.682;2022-07-29T03:12:30;101317.16;;;17.88;74.87
64095;BME280;50353;51.420;5.682;2022-07-29T03:14:56;101321.97;;;17.30;79.11
64095;BME280;50353;51.420;5.682;2022-07-29T03:17:22;101324.88;;;17.49;80.33
64095;BME280;50353;51.420;5.682;2022-07-29T03:19:48;101321.53;;;17.68;78.33
64095;BME280;50353;51.420;5.682;2022-07-29T03:22:13;101318.94;;;17.67;78.85
64095;BME280;50353;51.420;5.682;2022-07-29T03:24:39;101326.13;;;17.66;79.64
64095;BME280;50353;51.420;5.682;2022-07-29T03:27:05;101321.75;;;16.76;81.57
64095;BME280;50353;51.420;5.682;2022-07-29T03:29:30;101315.06;;;16.59;82.57
64095;BME280;50353;51.420;5.682;2022-07-29T03:31:56;101303.44;;;16.71;80.08
64095;BME280;50353;51.420;5.682;2022-07-29T03:34:21;101305.63;;;17.00;79.64
64095;BME280;50353;51.420;5.682;2022-07-29T03:36:47;101308.75;;;17.28;78.48
64095;BME280;50353;51.420;5.682;2022-07-29T03:39:18;101292.81;;;17.38;78.10
64095;BME280;50353;51.420;5.682;2022-07-29T03:41:47;101298.53;;;16.43;80.54
64095;BME280;50353;51.420;5.682;2022-07-29T03:44:16;101291.53;;;16.42;80.16
64095;BME280;50353;51.420;5.682;2022-07-29T03:46:43;101293.06;;;16.33;80.97
64095;BME280;50353;51.420;5.682;2022-07-29T03:49:10;101300.88;;;16.59;80.74
64095;BME280;50353;51.420;5.682;2022-07-29T03:51:36;101305.22;;;17.16;78.27
64095;BME280;50353;51.420;5.682;2022-07-29T03:54:03;101300.03;;;17.26;79.08
64095;BME280;50353;51.420;5.682;2022-07-29T03:56:29;101289.97;;;16.73;81.01
64095;BME280;50353;51.420;5.682;2022-07-29T03:58:58;101276.53;;;16.05;84.78
64095;BME280;50353;51.420;5.682;2022-07-29T04:01:23;101281.38;;;15.76;85.68
64095;BME280;50353;51.420;5.682;2022-07-29T04:03:49;101278.63;;;15.29;86.40
64095;BME280;50353;51.420;5.682;2022-07-29T04:06:15;101278.34;;;16.04;84.64
64095;BME280;50353;51.420;5.682;2022-07-29T04:08:40;101280.41;;;16.01;83.45
64095;BME280;50353;51.420;5.682;2022-07-29T04:11:05;101287.31;;;15.79;84.46
64095;BME280;50353;51.420;5.682;2022-07-29T04:13:32;101277.59;;;15.67;85.38
64095;BME280;50353;51.420;5.682;2022-07-29T04:15:57;101275.59;;;15.58;87.82
64095;BME280;50353;51.420;5.682;2022-07-29T04:18:23;101281.09;;;15.92;84.34
64095;BME280;50353;51.420;5.682;2022-07-29T04:20:48;101296.63;;;15.74;85.80
64095;BME280;50353;51.420;5.682;2022-07-29T04:23:13;101283.47;;;15.59;87.27
64095;BME280;50353;51.420;5.682;2022-07-29T04:25:40;101284.91;;;15.52;88.88
64095;BME280;50353;51.420;5.682;2022-07-29T04:28:07;101291.59;;;16.17;85.48
64095;BME280;50353;51.420;5.682;2022-07-29T04:30:33;101287.97;;;16.18;83.90
64095;BME280;50353;51.420;5.682;2022-07-29T04:33:01;101296.31;;;16.14;84.85
64095;BME280;50353;51.420;5.682;2022-07-29T04:35:28;101306.38;;;16.10;86.08
64095;BME280;50353;51.420;5.682;2022-07-29T04:37:53;101323.38;;;16.32;85.44
64095;BME280;50353;51.420;5.682;2022-07-29T04:40:18;101337.03;;;16.63;85.12
64095;BME280;50353;51.420;5.682;2022-07-29T04:42:44;101325.13;;;16.78;82.48
64095;BME280;50353;51.420;5.682;2022-07-29T04:45:09;101332.06;;;16.69;84.04
64095;BME280;50353;51.420;5.682;2022-07-29T04:47:34;101331.22;;;16.69;84.06
64095;BME280;50353;51.420;5.682;2022-07-29T04:50:00;101341.16;;;16.67;82.91
64095;BME280;50353;51.420;5.682;2022-07-29T04:52:25;101328.94;;;16.76;83.53
64095;BME280;50353;51.420;5.682;2022-07-29T04:54:51;101332.44;;;16.76;82.00
64095;BME280;50353;51.420;5.682;2022-07-29T04:57:16;101324.75;;;16.49;84.34
64095;BME280;50353;51.420;5.682;2022-07-29T04:59:41;101332.16;;;16.45;84.27
64095;BME280;50353;51.420;5.682;2022-07-29T05:02:07;101332.53;;;16.52;85.67
64095;BME280;50353;51.420;5.682;2022-07-29T05:04:32;101321.06;;;16.16;86.37
64095;BME280;50353;51.420;5.682;2022-07-29T05:06:57;101316.13;;;16.34;86.41
64095;BME280;50353;51.420;5.682;2022-07-29T05:09:22;101312.75;;;16.43;86.21
64095;BME280;50353;51.420;5.682;2022-07-29T05:11:48;101316.88;;;16.59;85.11
64095;BME280;50353;51.420;5.682;2022-07-29T05:14:13;101327.09;;;16.76;84.52
64095;BME280;50353;51.420;5.682;2022-07-29T05:16:38;101326.84;;;16.68;84.21
64095;BME280;50353;51.420;5.682;2022-07-29T05:19:05;101316.75;;;16.60;84.41
64095;BME280;50353;51.420;5.682;2022-07-29T05:21:31;101330.13;;;16.83;83.99
64095;BME280;50353;51.420;5.682;2022-07-29T05:23:56;101335.47;;;16.83;84.82
64095;BME280;50353;51.420;5.682;2022-07-29T05:26:21;101320.38;;;16.59;85.75
64095;BME280;50353;51.420;5.682;2022-07-29T05:28:47;101320.41;;;16.82;84.67
64095;BME280;50353;51.420;5.682;2022-07-29T05:31:12;101322.97;;;16.72;84.41
64095;BME280;50353;51.420;5.682;2022-07-29T05:33:39;101320.28;;;16.83;85.17
64095;BME280;50353;51.420;5.682;2022-07-29T05:36:04;101326.84;;;16.68;85.15
64095;BME280;50353;51.420;5.682;2022-07-29T05:38:33;101326.25;;;16.87;84.28
64095;BME280;50353;51.420;5.682;2022-07-29T05:40:59;101327.94;;;17.11;83.07
64095;BME280;50353;51.420;5.682;2022-07-29T05:43:25;101326.03;;;17.13;83.22
64095;BME280;50353;51.420;5.682;2022-07-29T05:45:50;101327.00;;;16.89;84.87
64095;BME280;50353;51.420;5.682;2022-07-29T05:48:15;101333.25;;;16.77;83.74
64095;BME280;50353;51.420;5.682;2022-07-29T05:50:41;101332.44;;;16.65;84.11
64095;BME280;50353;51.420;5.682;2022-07-29T05:53:06;101329.13;;;16.50;85.41
64095;BME280;50353;51.420;5.682;2022-07-29T05:55:31;101333.50;;;16.04;87.48
64095;BME280;50353;51.420;5.682;2022-07-29T05:57:56;101329.19;;;16.14;87.44
64095;BME280;50353;51.420;5.682;2022-07-29T06:00:22;101328.19;;;16.62;84.87
64095;BME280;50353;51.420;5.682;2022-07-29T06:02:47;101334.56;;;16.48;85.32
64095;BME280;50353;51.420;5.682;2022-07-29T06:05:12;101331.06;;;16.36;86.84
64095;BME280;50353;51.420;5.682;2022-07-29T06:07:38;101327.88;;;16.43;86.27
64095;BME280;50353;51.420;5.682;2022-07-29T06:10:04;101320.78;;;16.08;86.33
64095;BME280;50353;51.420;5.682;2022-07-29T06:12:29;101317.59;;;16.49;86.40
64095;BME280;50353;51.420;5.682;2022-07-29T06:14:55;101318.94;;;16.44;84.98
64095;BME280;50353;51.420;5.682;2022-07-29T06:17:20;101313.88;;;16.05;87.94
64095;BME280;50353;51.420;5.682;2022-07-29T06:19:45;101305.59;;;15.97;88.78
64095;BME280;50353;51.420;5.682;2022-07-29T06:22:11;101305.72;;;16.42;84.11
64095;BME280;50353;51.420;5.682;2022-07-29T06:24:36;101312.31;;;16.25;85.81
64095;BME280;50353;51.420;5.682;2022-07-29T06:27:02;101318.34;;;16.51;85.35
64095;BME280;50353;51.420;5.682;2022-07-29T06:29:28;101321.47;;;16.45;85.47
64095;BME280;50353;51.420;5.682;2022-07-29T06:31:59;101327.09;;;16.65;84.66
64095;BME280;50353;51.420;5.682;2022-07-29T06:34:25;101331.22;;;16.69;83.69
64095;BME280;50353;51.420;5.682;2022-07-29T06:36:50;101330.84;;;16.62;84.59
64095;BME280;50353;51.420;5.682;2022-07-29T06:39:17;101341.84;;;16.35;87.87
64095;BME280;50353;51.420;5.682;2022-07-29T06:41:46;101340.63;;;16.39;85.62
64095;BME280;50353;51.420;5.682;2022-07-29T06:44:12;101353.72;;;16.42;85.66
64095;BME280;50353;51.420;5.682;2022-07-29T06:46:38;101356.09;;;16.69;83.28
64095;BME280;50353;51.420;5.682;2022-07-29T06:49:04;101346.81;;;16.39;86.11
64095;BME280;50353;51.420;5.682;2022-07-29T06:51:29;101341.91;;;16.80;84.98
64095;BME280;50353;51.420;5.682;2022-07-29T06:53:55;101341.28;;;16.54;85.36
64095;BME280;50353;51.420;5.682;2022-07-29T06:56:22;101352.06;;;16.86;84.41
64095;BME280;50353;51.420;5.682;2022-07-29T06:58:47;101343.19;;;16.52;86.70
64095;BME280;50353;51.420;5.682;2022-07-29T07:01:12;101346.25;;;16.70;84.19
64095;BME280;50353;51.420;5.682;2022-07-29T07:03:38;101353.94;;;16.97;84.67
64095;BME280;50353;51.420;5.682;2022-07-29T07:06:03;101359.38;;;17.30;81.64
64095;BME280;50353;51.420;5.682;2022-07-29T07:08:28;101368.38;;;17.29;82.70
64095;BME280;50353;51.420;5.682;2022-07-29T07:10:54;101371.06;;;17.17;82.12
64095;BME280;50353;51.420;5.682;2022-07-29T07:13:20;101383.69;;;17.15;82.02
64095;BME280;50353;51.420;5.682;2022-07-29T07:15:46;101393.16;;;17.19;84.03
64095;BME280;50353;51.420;5.682;2022-07-29T07:18:14;101388.28;;;17.47;82.79
64095;BME280;50353;51.420;5.682;2022-07-29T07:20:40;101393.78;;;17.12;82.88
64095;BME280;50353;51.420;5.682;2022-07-29T07:23:05;101398.44;;;17.65;80.66
64095;BME280;50353;51.420;5.682;2022-07-29T07:25:31;101404.72;;;17.75;79.02
64095;BME280;50353;51.420;5.682;2022-07-29T07:27:56;101403.88;;;17.74;77.97
64095;BME280;50353;51.420;5.682;2022-07-29T07:30:22;101406.28;;;17.45;80.04
64095;BME280;50353;51.420;5.682;2022-07-29T07:32:47;101402.28;;;17.17;80.62
64095;BME280;50353;51.420;5.682;2022-07-29T07:35:12;101408.19;;;17.54;78.39
64095;BME280;50353;51.420;5.682;2022-07-29T07:37:38;101416.94;;;17.56;78.35
64095;BME280;50353;51.420;5.682;2022-07-29T07:40:06;101406.44;;;17.76;78.60
64095;BME280;50353;51.420;5.682;2022-07-29T07:42:31;101404.41;;;17.57;79.41
64095;BME280;50353;51.420;5.682;2022-07-29T07:44:57;101409.97;;;18.20;75.06
64095;BME280;50353;51.420;5.682;2022-07-29T07:47:22;101403.84;;;18.93;72.90
64095;BME280;50353;51.420;5.682;2022-07-29T07:49:49;101400.22;;;19.35;70.43
64095;BME280;50353;51.420;5.682;2022-07-29T07:52:16;101403.44;;;19.29;69.42
64095;BME280;50353;51.420;5.682;2022-07-29T07:54:42;101407.38;;;19.65;68.74
64095;BME280;50353;51.420;5.682;2022-07-29T07:57:09;101414.00;;;19.71;66.12
64095;BME280;50353;51.420;5.682;2022-07-29T07:59:34;101424.09;;;19.38;66.54
64095;BME280;50353;51.420;5.682;2022-07-29T08:02:00;101422.72;;;19.53;67.21
64095;BME280;50353;51.420;5.682;2022-07-29T08:04:26;101416.91;;;20.18;66.00
64095;BME280;50353;51.420;5.682;2022-07-29T08:06:52;101424.19;;;19.77;69.02
64095;BME280;50353;51.420;5.682;2022-07-29T08:09:19;101409.84;;;19.98;68.58
64095;BME280;50353;51.420;5.682;2022-07-29T08:11:44;101417.13;;;20.84;64.59
64095;BME280;50353;51.420;5.682;2022-07-29T08:14:10;101412.88;;;20.91;63.88
64095;BME280;50353;51.420;5.682;2022-07-29T08:16:35;101422.66;;;21.57;63.73
64095;BME280;50353;51.420;5.682;2022-07-29T08:19:00;101419.28;;;21.45;63.75
64095;BME280;50353;51.420;5.682;2022-07-29T08:21:27;101417.69;;;21.63;60.81
64095;BME280;50353;51.420;5.682;2022-07-29T08:23:52;101407.34;;;21.58;62.08
64095;BME280;50353;51.420;5.682;2022-07-29T08:26:19;101401.31;;;21.46;62.84
64095;BME280;50353;51.420;5.682;2022-07-29T08:28:45;101411.34;;;22.00;61.87
64095;BME280;50353;51.420;5.682;2022-07-29T08:31:14;101410.25;;;21.92;59.71
64095;BME280;50353;51.420;5.682;2022-07-29T08:33:39;101406.41;;;22.13;60.74
64095;BME280;50353;51.420;5.682;2022-07-29T08:36:05;101408.06;;;21.60;61.56
64095;BME280;50353;51.420;5.682;2022-07-29T08:38:31;101412.03;;;22.20;58.59
64095;BME280;50353;51.420;5.682;2022-07-29T08:40:57;101410.72;;;22.42;58.77
64095;BME280;50353;51.420;5.682;2022-07-29T08:43:23;101418.09;;;22.04;59.46
64095;BME280;50353;51.420;5.682;2022-07-29T08:45:50;101417.72;;;22.53;57.89
64095;BME280;50353;51.420;5.682;2022-07-29T08:48:18;101418.31;;;22.47;58.29
64095;BME280;50353;51.420;5.682;2022-07-29T08:50:44;101405.38;;;23.03;57.41
64095;BME280;50353;51.420;5.682;2022-07-29T08:53:12;101409.09;;;23.36;56.13
64095;BME280;50353;51.420;5.682;2022-07-29T08:55:45;101419.31;;;23.59;59.09
64095;BME280;50353;51.420;5.682;2022-07-29T08:58:13;101404.56;;;23.45;56.65
64095;BME280;50353;51.420;5.682;2022-07-29T09:00:42;101411.84;;;23.53;57.35
64095;BME280;50353;51.420;5.682;2022-07-29T09:03:09;101406.84;;;23.74;55.26
64095;BME280;50353;51.420;5.682;2022-07-29T09:05:35;101415.19;;;23.98;56.50
64095;BME280;50353;51.420;5.682;2022-07-29T09:08:01;101412.47;;;23.89;58.51
64095;BME280;50353;51.420;5.682;2022-07-29T09:10:27;101410.16;;;24.11;55.33
64095;BME280;50353;51.420;5.682;2022-07-29T09:12:54;101419.06;;;24.03;55.57
64095;BME280;50353;51.420;5.682;2022-07-29T09:15:20;101413.38;;;24.31;54.06
64095;BME280;50353;51.420;5.682;2022-07-29T09:17:47;101409.81;;;24.63;54.18
64095;BME280;50353;51.420;5.682;2022-07-29T09:22:39;101420.28;;;24.67;53.74
64095;BME280;50353;51.420;5.682;2022-07-29T09:25:05;101415.66;;;24.92;53.55
64095;BME280;50353;51.420;5.682;2022-07-29T09:27:30;101417.91;;;24.14;54.20
64095;BME280;50353;51.420;5.682;2022-07-29T09:30:00;101405.72;;;24.51;54.59
64095;BME280;50353;51.420;5.682;2022-07-29T09:32:26;101423.84;;;24.18;53.90
64095;BME280;50353;51.420;5.682;2022-07-29T09:35:18;101424.31;;;24.13;53.95
64095;BME280;50353;51.420;5.682;2022-07-29T09:37:44;101430.25;;;24.66;51.78
64095;BME280;50353;51.420;5.682;2022-07-29T09:40:12;101425.69;;;24.75;51.42
64095;BME280;50353;51.420;5.682;2022-07-29T09:42:38;101431.00;;;25.08;49.53
64095;BME280;50353;51.420;5.682;2022-07-29T09:45:03;101429.22;;;25.71;48.24
64095;BME280;50353;51.420;5.682;2022-07-29T09:47:47;101429.16;;;26.11;49.22
64095;BME280;50353;51.420;5.682;2022-07-29T09:50:14;101436.47;;;25.79;49.94
64095;BME280;50353;51.420;5.682;2022-07-29T09:52:48;101428.06;;;25.97;48.18
64095;BME280;50353;51.420;5.682;2022-07-29T09:55:14;101424.97;;;26.31;48.55
64095;BME280;50353;51.420;5.682;2022-07-29T09:57:40;101420.81;;;25.18;50.28
64095;BME280;50353;51.420;5.682;2022-07-29T10:00:12;101414.84;;;25.39;49.51
64095;BME280;50353;51.420;5.682;2022-07-29T10:02:39;101417.81;;;26.15;48.28
64095;BME280;50353;51.420;5.682;2022-07-29T10:05:15;101419.16;;;26.35;47.97
64095;BME280;50353;51.420;5.682;2022-07-29T10:07:53;101413.81;;;26.64;47.65
64095;BME280;50353;51.420;5.682;2022-07-29T10:10:20;101412.78;;;25.81;47.60
64095;BME280;50353;51.420;5.682;2022-07-29T10:12:54;101412.44;;;26.07;48.97
64095;BME280;50353;51.420;5.682;2022-07-29T10:15:22;101417.19;;;25.74;50.47
64095;BME280;50353;51.420;5.682;2022-07-29T10:17:48;101415.91;;;26.39;47.42
64095;BME280;50353;51.420;5.682;2022-07-29T10:20:15;101412.94;;;25.48;49.71
64095;BME280;50353;51.420;5.682;2022-07-29T10:22:41;101415.25;;;26.75;48.21
64095;BME280;50353;51.420;5.682;2022-07-29T10:25:07;101412.91;;;27.47;46.11
64095;BME280;50353;51.420;5.682;2022-07-29T10:27:34;101406.81;;;27.30;45.45
64095;BME280;50353;51.420;5.682;2022-07-29T10:30:00;101405.31;;;27.27;46.47
64095;BME280;50353;51.420;5.682;2022-07-29T10:35:15;101408.34;;;27.03;48.77
64095;BME280;50353;51.420;5.682;2022-07-29T10:38:21;101412.97;;;27.90;47.29
64095;BME280;50353;51.420;5.682;2022-07-29T10:43:54;101416.09;;;26.76;48.59
64095;BME280;50353;51.420;5.682;2022-07-29T10:46:21;101410.38;;;26.86;47.85
64095;BME280;50353;51.420;5.682;2022-07-29T10:49:05;101398.22;;;27.41;45.74
64095;BME280;50353;51.420;5.682;2022-07-29T10:51:51;101410.28;;;27.09;48.04
64095;BME280;50353;51.420;5.682;2022-07-29T10:59:39;101412.16;;;26.40;46.70
64095;BME280;50353;51.420;5.682;2022-07-29T11:05:06;101394.94;;;27.31;45.34
64095;BME280;50353;51.420;5.682;2022-07-29T11:07:34;101414.56;;;26.35;49.48
64095;BME280;50353;51.420;5.682;2022-07-29T11:15:04;101406.09;;;26.53;47.97
64095;BME280;50353;51.420;5.682;2022-07-29T11:20:42;101409.16;;;27.03;47.36
64095;BME280;50353;51.420;5.682;2022-07-29T11:23:32;101400.25;;;27.76;44.14
64095;BME280;50353;51.420;5.682;2022-07-29T11:29:22;101394.28;;;27.14;45.35
64095;BME280;50353;51.420;5.682;2022-07-29T11:39:32;101402.75;;;28.14;43.25
64095;BME280;50353;51.420;5.682;2022-07-29T11:47:23;101406.84;;;28.03;42.54
64095;BME280;50353;51.420;5.682;2022-07-29T11:49:50;101396.78;;;28.47;44.01
64095;BME280;50353;51.420;5.682;2022-07-29T11:52:16;101394.38;;;28.09;44.25
64095;BME280;50353;51.420;5.682;2022-07-29T11:54:42;101391.84;;;27.49;43.22
64095;BME280;50353;51.420;5.682;2022-07-29T11:57:08;101401.13;;;27.10;44.52
64095;BME280;50353;51.420;5.682;2022-07-29T11:59:41;101389.97;;;27.20;45.47
64095;BME280;50353;51.420;5.682;2022-07-29T12:02:07;101392.41;;;28.03;46.35
64095;BME280;50353;51.420;5.682;2022-07-29T12:04:34;101392.00;;;28.84;42.39
64095;BME280;50353;51.420;5.682;2022-07-29T12:07:00;101395.94;;;28.75;43.14
64095;BME280;50353;51.420;5.682;2022-07-29T12:09:25;101394.22;;;29.57;42.36
64095;BME280;50353;51.420;5.682;2022-07-29T12:11:57;101390.25;;;28.70;42.96
64095;BME280;50353;51.420;5.682;2022-07-29T12:14:30;101391.75;;;29.14;40.89
64095;BME280;50353;51.420;5.682;2022-07-29T12:16:56;101402.16;;;29.04;40.26
64095;BME280;50353;51.420;5.682;2022-07-29T12:19:21;101392.94;;;29.53;39.91
64095;BME280;50353;51.420;5.682;2022-07-29T12:21:49;101396.31;;;29.07;37.74
64095;BME280;50353;51.420;5.682;2022-07-29T12:24:15;101408.88;;;28.44;41.56
64095;BME280;50353;51.420;5.682;2022-07-29T12:26:55;101403.44;;;29.08;40.28
64095;BME280;50353;51.420;5.682;2022-07-29T12:29:21;101396.16;;;28.23;42.52
64095;BME280;50353;51.420;5.682;2022-07-29T12:31:52;101401.16;;;28.20;42.22
64095;BME280;50353;51.420;5.682;2022-07-29T12:34:20;101397.50;;;28.34;44.17
64095;BME280;50353;51.420;5.682;2022-07-29T12:36:46;101392.75;;;27.56;42.13
64095;BME280;50353;51.420;5.682;2022-07-29T12:39:11;101400.47;;;28.39;40.33
64095;BME280;50353;51.420;5.682;2022-07-29T12:41:37;101393.38;;;28.66;43.21
64095;BME280;50353;51.420;5.682;2022-07-29T12:44:04;101395.94;;;29.10;38.53
64095;BME280;50353;51.420;5.682;2022-07-29T12:46:29;101397.38;;;29.06;39.76
64095;BME280;50353;51.420;5.682;2022-07-29T12:48:54;101392.03;;;29.26;39.53
64095;BME280;50353;51.420;5.682;2022-07-29T12:51:34;101402.22;;;28.54;41.95
64095;BME280;50353;51.420;5.682;2022-07-29T12:54:09;101394.03;;;29.52;37.87
64095;BME280;50353;51.420;5.682;2022-07-29T12:56:36;101393.50;;;29.28;37.93
64095;BME280;50353;51.420;5.682;2022-07-29T12:59:20;101391.19;;;30.00;38.58
64095;BME280;50353;51.420;5.682;2022-07-29T13:01:52;101389.31;;;29.88;38.15
64095;BME280;50353;51.420;5.682;2022-07-29T13:04:33;101389.94;;;30.10;37.50
64095;BME280;50353;51.420;5.682;2022-07-29T13:07:02;101388.38;;;29.54;37.74
64095;BME280;50353;51.420;5.682;2022-07-29T13:09:39;101389.66;;;29.16;39.00
64095;BME280;50353;51.420;5.682;2022-07-29T13:12:06;101380.31;;;28.90;39.30
64095;BME280;50353;51.420;5.682;2022-07-29T13:14:40;101380.94;;;28.07;39.62
64095;BME280;50353;51.420;5.682;2022-07-29T13:17:09;101380.63;;;29.09;38.17
64095;BME280;50353;51.420;5.682;2022-07-29T13:19:37;101384.22;;;28.74;40.27
64095;BME280;50353;51.420;5.682;2022-07-29T13:22:04;101388.38;;;29.12;39.65
64095;BME280;50353;51.420;5.682;2022-07-29T13:24:29;101391.69;;;28.65;39.08
64095;BME280;50353;51.420;5.682;2022-07-29T13:26:55;101391.50;;;29.44;39.98
64095;BME280;50353;51.420;5.682;2022-07-29T13:29:20;101389.81;;;29.49;38.36
64095;BME280;50353;51.420;5.682;2022-07-29T13:31:45;101377.38;;;28.85;36.82
64095;BME280;50353;51.420;5.682;2022-07-29T13:34:11;101383.06;;;27.90;39.72
64095;BME280;50353;51.420;5.682;2022-07-29T13:36:36;101388.47;;;28.05;41.37
64095;BME280;50353;51.420;5.682;2022-07-29T13:39:01;101372.56;;;28.59;40.63
64095;BME280;50353;51.420;5.682;2022-07-29T13:41:27;101376.09;;;28.81;39.79
64095;BME280;50353;51.420;5.682;2022-07-29T13:43:53;101378.50;;;28.41;39.50